Time;durP1;ratioP1;P1;durP2;ratioP2;P2;SDS_P1;SDS_P2;PMS_P1;PMS_P2;Temp;Humidity;BMP_temperature;BMP_pressure;BME280_temperature;BME280_humidity;BME280_pressure;Samples;Min_cycle;Max_cycle;Signal;HPM_P1;HPM_P2
2021/08/12 00:01:05;;;;;;;9.23;4.85;;;;;;;15.56;100.00;100518.53;5056250;28;20434;-67
2021/08/12 00:03:31;;;;;;;7.40;5.22;;;;;;;15.58;100.00;100521.09;5056751;28;20053;-67
2021/08/12 00:05:58;;;;;;;9.23;5.35;;;;;;;15.55;100.00;100516.81;5056249;28;20063;-67
2021/08/12 00:08:25;;;;;;;9.73;5.47;;;;;;;15.53;100.00;100518.75;5056160;28;20417;-68
2021/08/12 00:10:52;;;;;;;8.77;5.07;;;;;;;15.50;100.00;100519.00;5056477;28;20049;-69
2021/08/12 00:13:20;;;;;;;8.85;4.88;;;;;;;15.55;100.00;100524.00;5056139;28;20072;-68
2021/08/12 00:15:47;;;;;;;8.50;5.57;;;;;;;15.51;100.00;100526.06;5056418;28;20057;-68
2021/08/12 00:18:14;;;;;;;17.60;5.30;;;;;;;15.53;100.00;100524.13;5044887;28;20049;-68
2021/08/12 00:20:41;;;;;;;9.52;5.75;;;;;;;15.49;100.00;100522.66;5038121;28;20068;-68
2021/08/12 00:23:07;;;;;;;7.40;4.93;;;;;;;15.52;100.00;100527.78;5056182;28;20118;-68
2021/08/12 00:25:34;;;;;;;12.05;6.47;;;;;;;15.50;100.00;100513.59;5038163;28;20107;-68
2021/08/12 00:28:01;;;;;;;8.65;5.28;;;;;;;15.46;100.00;100517.50;5055562;28;20061;-67
2021/08/12 00:30:27;;;;;;;8.80;5.15;;;;;;;15.45;100.00;100526.53;5054611;28;20049;-66
2021/08/12 00:32:54;;;;;;;8.30;5.10;;;;;;;15.48;100.00;100513.72;5056100;28;20099;-67
2021/08/12 00:35:21;;;;;;;6.65;5.20;;;;;;;15.44;100.00;100516.75;5055826;28;20107;-67
2021/08/12 00:37:48;;;;;;;8.82;4.65;;;;;;;15.37;100.00;100518.22;5055781;28;20053;-67
2021/08/12 00:40:19;;;;;;;8.95;5.53;;;;;;;15.33;100.00;100502.31;5055868;28;20326;-67
2021/08/12 00:42:45;;;;;;;7.50;5.53;;;;;;;15.34;100.00;100509.41;5055764;28;20049;-66
2021/08/12 00:45:12;;;;;;;9.95;5.53;;;;;;;15.36;100.00;100503.03;5056045;28;20084;-67
2021/08/12 00:47:39;;;;;;;10.05;5.70;;;;;;;15.42;100.00;100499.91;5055495;28;20389;-68
2021/08/12 00:50:06;;;;;;;7.88;5.45;;;;;;;15.29;100.00;100492.75;5038224;28;20045;-67
2021/08/12 00:52:33;;;;;;;10.85;5.28;;;;;;;15.30;100.00;100499.84;5055647;28;20106;-67
2021/08/12 00:55:07;;;;;;;14.73;5.55;;;;;;;15.27;100.00;100499.22;5055324;28;20053;-67
2021/08/12 00:57:35;;;;;;;7.10;5.15;;;;;;;15.21;100.00;100503.25;5037896;28;20048;-67
2021/08/12 01:00:05;;;;;;;12.25;5.30;;;;;;;15.24;100.00;100508.38;5055350;28;20056;-67
2021/08/12 01:02:32;;;;;;;7.50;5.55;;;;;;;15.31;100.00;100512.31;5055283;28;20103;-66
2021/08/12 01:04:59;;;;;;;9.32;5.97;;;;;;;15.39;100.00;100509.06;5037704;28;20049;-68
2021/08/12 01:07:25;;;;;;;9.98;5.22;;;;;;;15.42;100.00;100510.66;5054386;28;20057;-68
2021/08/12 01:10:07;;;;;;;10.43;5.03;;;;;;;15.37;100.00;100494.00;5055436;28;20053;-67
2021/08/12 01:12:43;;;;;;;8.20;5.57;;;;;;;15.34;100.00;100484.31;5055040;28;20480;-66
2021/08/12 01:15:16;;;;;;;7.68;4.82;;;;;;;15.34;100.00;100498.66;5055356;28;20466;-66
2021/08/12 01:17:59;;;;;;;12.02;5.28;;;;;;;15.38;100.00;100499.28;5055214;28;20060;-65
2021/08/12 01:20:49;;;;;;;8.15;4.85;;;;;;;15.44;100.00;100509.56;5037813;28;20056;-68
2021/08/12 01:23:16;;;;;;;7.30;4.93;;;;;;;15.41;100.00;100503.56;5054906;28;20079;-67
2021/08/12 01:25:46;;;;;;;7.55;4.63;;;;;;;15.46;100.00;100509.44;5054730;28;20400;-66
2021/08/12 01:28:20;;;;;;;9.73;5.03;;;;;;;15.54;100.00;100508.84;5054731;28;20053;-68
2021/08/12 01:30:56;;;;;;;7.03;4.97;;;;;;;15.49;100.00;100490.38;5055004;28;20372;-67
2021/08/12 01:33:48;;;;;;;6.50;5.20;;;;;;;15.59;100.00;100499.44;5054931;28;20128;-66
2021/08/12 01:36:16;;;;;;;8.80;5.00;;;;;;;15.66;100.00;100496.28;5054720;28;20073;-69
2021/08/12 01:38:45;;;;;;;9.10;5.22;;;;;;;15.65;100.00;100486.50;5054705;28;20106;-68
2021/08/12 01:41:12;;;;;;;8.85;4.88;;;;;;;15.64;100.00;100487.47;5037452;28;20045;-68
2021/08/12 01:43:39;;;;;;;7.22;4.75;;;;;;;15.66;100.00;100483.69;5054587;28;20430;-68
2021/08/12 01:46:07;;;;;;;11.95;4.93;;;;;;;15.59;100.00;100493.22;5055036;28;20048;-69
2021/08/12 01:48:35;;;;;;;9.38;4.93;;;;;;;15.56;100.00;100497.00;5036988;28;20053;-69
2021/08/12 01:51:04;;;;;;;9.02;5.20;;;;;;;15.65;100.00;100499.94;5054520;28;20052;-68
2021/08/12 01:53:32;;;;;;;7.07;5.30;;;;;;;15.60;100.00;100501.16;5036962;28;20056;-69
2021/08/12 01:55:59;;;;;;;9.07;5.38;;;;;;;15.60;100.00;100503.00;5054451;28;20578;-68
2021/08/12 01:58:26;;;;;;;8.18;5.10;;;;;;;15.49;100.00;100490.38;5054721;28;20045;-67
2021/08/12 02:00:54;;;;;;;8.15;5.50;;;;;;;15.59;100.00;100504.81;5037143;28;20049;-69
2021/08/12 02:03:23;;;;;;;8.30;5.22;;;;;;;15.52;100.00;100482.06;5054272;28;20067;-69
2021/08/12 02:05:51;;;;;;;8.20;5.18;;;;;;;15.53;100.00;100491.84;5054659;28;20060;-68
2021/08/12 02:08:19;;;;;;;6.85;5.40;;;;;;;15.58;100.00;100494.19;5054645;28;20052;-68
2021/08/12 02:10:48;;;;;;;9.50;5.30;;;;;;;15.58;100.00;100481.59;5054667;28;20119;-69
2021/08/12 02:13:15;;;;;;;5.40;4.47;;;;;;;15.56;100.00;100486.25;5054206;28;20503;-69
2021/08/12 02:15:42;;;;;;;8.35;5.00;;;;;;;15.59;100.00;100474.38;5036727;28;20088;-67
2021/08/12 02:18:09;;;;;;;9.45;5.40;;;;;;;15.55;100.00;100484.53;5039236;28;20052;-67
2021/08/12 02:20:39;;;;;;;8.50;5.45;;;;;;;15.48;100.00;100475.22;5057193;28;20106;-68
2021/08/12 02:23:13;;;;;;;8.60;5.55;;;;;;;15.42;100.00;100468.47;5038657;28;20046;-68
2021/08/12 02:25:43;;;;;;;10.65;5.60;;;;;;;15.44;100.00;100476.41;5038365;28;20107;-67
2021/08/12 02:28:11;;;;;;;8.60;5.00;;;;;;;15.40;100.00;100478.47;5038546;28;20152;-68
2021/08/12 02:30:41;;;;;;;7.00;4.75;;;;;;;15.36;100.00;100473.47;5037514;28;20044;-67
2021/08/12 02:33:12;;;;;;;10.73;5.45;;;;;;;15.29;100.00;100484.69;5058567;28;20106;-69
2021/08/12 02:35:40;;;;;;;10.02;5.70;;;;;;;15.20;100.00;100475.47;5057969;28;20472;-67
2021/08/12 02:38:10;;;;;;;11.68;5.60;;;;;;;15.24;100.00;100480.63;5058013;28;20106;-67
2021/08/12 02:40:38;;;;;;;8.10;5.32;;;;;;;15.19;100.00;100483.66;5057853;28;20422;-67
2021/08/12 02:43:06;;;;;;;8.30;4.93;;;;;;;15.14;100.00;100480.47;5058027;28;20165;-68
2021/08/12 02:45:34;;;;;;;9.43;5.53;;;;;;;15.10;100.00;100484.34;5057967;28;20138;-68
2021/08/12 02:48:04;;;;;;;7.90;5.72;;;;;;;15.12;100.00;100485.09;5057978;28;20103;-68
2021/08/12 02:50:31;;;;;;;11.02;6.03;;;;;;;15.10;100.00;100484.34;5057812;28;20045;-69
2021/08/12 02:52:58;;;;;;;9.93;5.50;;;;;;;15.01;100.00;100485.91;5057821;28;20110;-68
2021/08/12 02:55:26;;;;;;;9.43;5.53;;;;;;;14.97;100.00;100477.22;5057622;28;20107;-68
2021/08/12 02:57:53;;;;;;;8.02;5.82;;;;;;;14.98;100.00;100481.59;5024133;28;20059;-67
2021/08/12 03:00:20;;;;;;;8.77;5.60;;;;;;;14.97;100.00;100476.38;5057883;28;20100;-68
2021/08/12 03:02:49;;;;;;;9.05;5.28;;;;;;;14.95;100.00;100471.09;5057625;28;20429;-68
2021/08/12 03:05:19;;;;;;;7.65;5.72;;;;;;;14.93;100.00;100473.88;5057901;28;20429;-69
2021/08/12 03:07:47;;;;;;;9.18;6.05;;;;;;;14.86;100.00;100471.78;5057653;28;20049;-70
2021/08/12 03:10:18;;;;;;;7.78;5.05;;;;;;;14.88;100.00;100468.00;5057434;28;20103;-68
2021/08/12 03:12:47;;;;;;;9.93;5.40;;;;;;;14.88;100.00;100472.53;5057878;28;20049;-69
2021/08/12 03:15:15;;;;;;;9.85;5.75;;;;;;;14.90;100.00;100473.25;5057624;28;20080;-69
2021/08/12 03:17:42;;;;;;;10.73;5.68;;;;;;;14.89;100.00;100471.56;5056699;28;20144;-68
2021/08/12 03:20:10;;;;;;;13.25;5.75;;;;;;;14.87;100.00;100463.59;5055086;28;20106;-69
2021/08/12 03:22:37;;;;;;;7.07;5.65;;;;;;;14.84;100.00;100469.22;5056201;28;20609;-68
2021/08/12 03:25:04;;;;;;;7.38;5.03;;;;;;;14.80;100.00;100465.91;5039674;28;20450;-68
2021/08/12 03:27:31;;;;;;;7.43;5.65;;;;;;;14.83;100.00;100467.50;5056984;28;20441;-69
2021/08/12 03:29:58;;;;;;;7.43;5.32;;;;;;;14.78;100.00;100453.53;5038888;28;20052;-70
2021/08/12 03:32:24;;;;;;;8.07;5.47;;;;;;;14.77;100.00;100463.41;5057463;28;20052;-68
2021/08/12 03:34:51;;;;;;;9.88;5.15;;;;;;;14.77;100.00;100466.09;5056726;28;20129;-69
2021/08/12 03:37:18;;;;;;;6.95;5.20;;;;;;;14.70;100.00;100459.44;5041643;28;20288;-68
2021/08/12 03:39:44;;;;;;;8.05;5.72;;;;;;;14.74;100.00;100469.03;5037214;28;20049;-69
2021/08/12 03:42:11;;;;;;;8.30;5.70;;;;;;;14.72;100.00;100470.94;5035809;28;20099;-68
2021/08/12 03:44:38;;;;;;;8.85;5.85;;;;;;;14.67;100.00;100475.81;5037083;28;20049;-68
2021/08/12 03:47:06;;;;;;;9.93;5.88;;;;;;;14.64;100.00;100481.38;5036919;28;20049;-69
2021/08/12 03:49:34;;;;;;;10.70;5.75;;;;;;;14.61;100.00;100463.66;5036736;28;20068;-69
2021/08/12 03:52:01;;;;;;;6.82;5.97;;;;;;;14.65;100.00;100477.72;5040283;28;20056;-68
2021/08/12 03:54:27;;;;;;;8.52;5.28;;;;;;;14.64;100.00;100474.19;5040446;28;20438;-68
2021/08/12 03:56:54;;;;;;;8.25;5.70;;;;;;;14.62;100.00;100472.59;5036845;28;20083;-69
2021/08/12 03:59:23;;;;;;;9.20;6.30;;;;;;;14.63;100.00;100476.97;5036607;28;20397;-69
2021/08/12 04:01:50;;;;;;;11.85;6.82;;;;;;;14.64;100.00;100473.31;5035168;28;20127;-68
2021/08/12 04:04:16;;;;;;;12.32;7.15;;;;;;;14.72;100.00;100475.47;5036756;28;20053;-66
2021/08/12 04:06:43;;;;;;;9.63;7.55;;;;;;;14.78;100.00;100478.56;5036460;28;20053;-67
2021/08/12 04:09:10;;;;;;;15.20;8.02;;;;;;;14.87;100.00;100478.88;5036576;28;20565;-67
2021/08/12 04:11:37;;;;;;;9.48;7.75;;;;;;;14.96;100.00;100475.50;5036325;28;20427;-68
2021/08/12 04:14:05;;;;;;;11.25;7.55;;;;;;;14.97;100.00;100479.91;5036718;28;20049;-67
2021/08/12 04:16:32;;;;;;;12.63;7.38;;;;;;;15.06;100.00;100479.22;5018934;28;20061;-66
2021/08/12 04:18:59;;;;;;;9.65;6.97;;;;;;;15.09;100.00;100482.66;5038924;28;20050;-66
2021/08/12 04:21:25;;;;;;;11.38;6.78;;;;;;;15.11;100.00;100481.56;5044325;28;20438;-66
2021/08/12 04:23:52;;;;;;;11.13;7.50;;;;;;;15.17;100.00;100486.47;5050664;28;20319;-66
2021/08/12 04:26:19;;;;;;;7.88;7.05;;;;;;;15.25;100.00;100485.88;5033900;28;20049;-67
2021/08/12 04:28:47;;;;;;;11.43;7.60;;;;;;;15.36;100.00;100486.91;5035843;28;20442;-68
2021/08/12 04:31:14;;;;;;;10.82;7.15;;;;;;;15.42;100.00;100483.75;5037776;28;20123;-66
2021/08/12 04:33:40;;;;;;;9.38;6.97;;;;;;;15.45;100.00;100488.88;5036140;28;20099;-67
2021/08/12 04:36:09;;;;;;;12.45;6.80;;;;;;;15.45;100.00;100489.75;5036135;28;20119;-67
2021/08/12 04:38:36;;;;;;;10.35;7.03;;;;;;;15.46;100.00;100487.91;5036117;28;20053;-68
2021/08/12 04:41:03;;;;;;;10.35;6.60;;;;;;;15.51;100.00;100480.34;5034755;28;20299;-67
2021/08/12 04:43:30;;;;;;;9.15;6.80;;;;;;;15.50;100.00;100475.06;5036029;28;20057;-67
2021/08/12 04:45:57;;;;;;;11.52;6.32;;;;;;;15.46;100.00;100479.84;5035662;28;20335;-67
2021/08/12 04:48:24;;;;;;;11.45;6.75;;;;;;;15.49;100.00;100485.00;5035944;28;20593;-67
2021/08/12 04:50:51;;;;;;;9.35;6.32;;;;;;;15.50;100.00;100475.94;5035663;28;20088;-67
2021/08/12 04:53:17;;;;;;;9.82;6.35;;;;;;;15.53;100.00;100480.25;5018239;28;20398;-66
2021/08/12 04:55:44;;;;;;;11.45;6.68;;;;;;;15.57;100.00;100481.69;5035526;28;20430;-68
2021/08/12 04:58:11;;;;;;;9.20;5.72;;;;;;;15.68;100.00;100479.03;5035450;28;20224;-66
2021/08/12 05:00:38;;;;;;;8.55;6.05;;;;;;;15.74;100.00;100472.31;5039529;28;20132;-68
2021/08/12 05:03:05;;;;;;;10.90;6.50;;;;;;;15.87;99.91;100475.75;5045876;28;20061;-67
2021/08/12 05:05:33;;;;;;;10.65;5.80;;;;;;;15.86;100.00;100482.13;5055255;28;20071;-68
2021/08/12 05:08:00;;;;;;;13.98;6.35;;;;;;;15.93;100.00;100492.44;5055359;28;20065;-67
2021/08/12 05:10:26;;;;;;;9.38;6.40;;;;;;;16.05;98.33;100496.00;5055235;28;20136;-67
2021/08/12 05:12:53;;;;;;;8.23;6.18;;;;;;;16.02;99.16;100494.44;5055280;28;20194;-67
2021/08/12 05:15:22;;;;;;;9.52;5.78;;;;;;;16.09;98.42;100492.97;5055509;28;20199;-67
2021/08/12 05:17:48;;;;;;;12.65;6.53;;;;;;;16.11;98.34;100492.81;5055312;28;20052;-67
2021/08/12 05:20:15;;;;;;;10.05;6.40;;;;;;;16.19;97.74;100489.53;5055349;28;20055;-68
2021/08/12 05:22:42;;;;;;;13.05;6.95;;;;;;;16.25;98.33;100502.50;5036459;28;20060;-68
2021/08/12 05:25:08;;;;;;;9.38;5.82;;;;;;;16.33;97.45;100496.53;5035243;28;20127;-68
2021/08/12 05:27:35;;;;;;;7.45;6.18;;;;;;;16.33;97.87;100494.66;5034805;28;20049;-68
2021/08/12 05:30:02;;;;;;;9.57;6.20;;;;;;;16.36;97.59;100497.13;5043260;28;20045;-68
2021/08/12 05:32:29;;;;;;;9.25;6.05;;;;;;;16.36;97.62;100502.53;5054795;28;20057;-68
2021/08/12 05:34:56;;;;;;;13.60;5.65;;;;;;;16.45;97.24;100500.06;5055066;28;20099;-68
2021/08/12 05:37:22;;;;;;;9.82;6.30;;;;;;;16.42;97.37;100499.34;5054966;28;20388;-67
2021/08/12 05:39:49;;;;;;;9.25;6.00;;;;;;;16.49;97.37;100501.50;5054649;28;20393;-67
2021/08/12 05:42:15;;;;;;;8.73;6.40;;;;;;;16.45;97.87;100489.28;5037201;28;20499;-68
2021/08/12 05:44:42;;;;;;;8.25;5.78;;;;;;;16.54;97.58;100502.00;5055055;28;20053;-68
2021/08/12 05:47:09;;;;;;;9.82;6.25;;;;;;;16.53;97.92;100478.72;5054981;28;20045;-68
2021/08/12 05:49:35;;;;;;;11.40;6.30;;;;;;;16.66;98.32;100489.34;5054768;28;20182;-67
2021/08/12 05:52:02;;;;;;;9.35;6.32;;;;;;;16.53;98.07;100458.06;5036701;28;20049;-68
2021/08/12 05:54:30;;;;;;;8.43;6.00;;;;;;;16.85;97.04;100491.41;5054595;28;20391;-68
2021/08/12 05:56:56;;;;;;;6.43;5.43;;;;;;;16.93;96.66;100491.63;5055026;28;20102;-68
2021/08/12 05:59:23;;;;;;;9.50;5.70;;;;;;;17.14;96.01;100495.38;5054773;28;20134;-68
2021/08/12 06:01:50;;;;;;;9.88;6.05;;;;;;;17.20;94.94;100487.66;5027734;28;20155;-67
2021/08/12 06:04:17;;;;;;;8.55;6.03;;;;;;;17.28;95.01;100489.72;5032379;28;20353;-68
2021/08/12 06:06:44;;;;;;;8.77;5.07;;;;;;;17.30;95.63;100473.38;5052679;28;20057;-69
2021/08/12 06:09:10;;;;;;;8.02;5.10;;;;;;;17.24;95.75;100462.16;5053399;28;20053;-73
2021/08/12 06:11:37;;;;;;;8.27;5.30;;;;;;;17.33;96.21;100467.75;5053445;28;20503;-72
2021/08/12 06:14:04;;;;;;;6.85;5.25;;;;;;;17.42;96.67;100479.59;5035796;28;20071;-71
2021/08/12 06:16:30;;;;;;;8.00;5.60;;;;;;;17.52;95.25;100488.59;5053520;28;20059;-72
2021/08/12 06:18:57;;;;;;;11.18;5.50;;;;;;;17.64;95.24;100484.00;5053452;28;20084;-71
2021/08/12 06:21:24;;;;;;;8.38;5.65;;;;;;;17.72;94.72;100494.13;5053635;28;20076;-74
2021/08/12 06:23:52;;;;;;;8.60;5.40;;;;;;;17.75;94.37;100493.84;5048942;28;20049;-73
2021/08/12 06:26:18;;;;;;;6.78;4.88;;;;;;;17.83;93.85;100487.81;5052786;28;20049;-69
2021/08/12 06:28:46;;;;;;;6.93;5.60;;;;;;;17.84;95.07;100484.97;5052433;28;20065;-69
2021/08/12 06:31:13;;;;;;;7.93;5.68;;;;;;;17.84;94.51;100476.00;5052557;28;20045;-68
2021/08/12 06:33:40;;;;;;;7.80;5.10;;;;;;;17.84;94.08;100479.56;5053439;28;20345;-68
2021/08/12 06:36:07;;;;;;;8.57;4.85;;;;;;;17.88;94.87;100472.91;5062713;28;20056;-69
2021/08/12 06:38:34;;;;;;;10.35;5.80;;;;;;;17.90;93.79;100489.84;5055922;28;20049;-68
2021/08/12 06:41:02;;;;;;;9.30;5.10;;;;;;;17.97;94.10;100487.44;5052268;28;20076;-69
2021/08/12 06:43:29;;;;;;;10.23;5.38;;;;;;;17.95;94.46;100486.75;5034888;28;20441;-69
2021/08/12 06:45:55;;;;;;;8.23;5.47;;;;;;;18.01;93.18;100491.59;5053331;28;20065;-74
2021/08/12 06:48:22;;;;;;;8.25;5.25;;;;;;;18.01;95.26;100488.91;5056045;28;20056;-73
2021/08/12 06:50:49;;;;;;;7.43;4.68;;;;;;;18.00;95.42;100481.81;5023015;28;20041;-74
2021/08/12 06:53:15;;;;;;;6.90;5.18;;;;;;;17.87;95.81;100462.25;5036129;28;20053;-74
2021/08/12 06:55:42;;;;;;;7.63;5.70;;;;;;;18.02;95.03;100487.91;5052749;28;20075;-74
2021/08/12 06:58:09;;;;;;;8.60;4.95;;;;;;;17.99;94.18;100474.69;5053031;28;20119;-73
2021/08/12 07:00:35;;;;;;;7.38;5.32;;;;;;;18.06;94.20;100485.81;5053066;28;20049;-73
2021/08/12 07:03:02;;;;;;;10.13;5.25;;;;;;;18.08;94.83;100483.84;5053531;28;20357;-71
2021/08/12 07:05:29;;;;;;;9.13;5.90;;;;;;;18.08;94.18;100477.59;5055998;28;20110;-72
2021/08/12 07:07:56;;;;;;;6.82;5.10;;;;;;;18.13;94.54;100483.44;5039004;28;20341;-76
2021/08/12 07:10:23;;;;;;;12.88;5.63;;;;;;;18.16;93.61;100483.19;5055980;28;20319;-72
2021/08/12 07:12:49;;;;;;;10.25;6.20;;;;;;;18.21;93.46;100486.34;5041927;28;20068;-73
2021/08/12 07:15:16;;;;;;;11.15;5.43;;;;;;;18.32;92.84;100488.91;5056278;28;20049;-72
2021/08/12 07:17:43;;;;;;;10.85;6.13;;;;;;;18.41;92.53;100491.81;5057012;28;20072;-73
2021/08/12 07:20:10;;;;;;;9.35;5.78;;;;;;;18.45;91.91;100494.09;5049804;28;20048;-74
2021/08/12 07:22:36;;;;;;;8.48;5.68;;;;;;;18.52;92.51;100498.97;5070547;28;20054;-72
2021/08/12 07:25:03;;;;;;;8.32;5.45;;;;;;;18.54;92.23;100491.56;5056503;28;20049;-71
2021/08/12 07:27:30;;;;;;;7.13;5.22;;;;;;;18.61;92.76;100508.94;5055926;28;20091;-72
2021/08/12 07:29:56;;;;;;;7.55;5.18;;;;;;;18.61;93.77;100502.69;5053722;28;20110;-69
2021/08/12 07:32:23;;;;;;;11.05;5.55;;;;;;;18.70;93.24;100497.28;5038501;28;20041;-72
2021/08/12 07:34:50;;;;;;;8.23;5.68;;;;;;;18.70;94.00;100499.16;5056318;28;20137;-76
2021/08/12 07:37:16;;;;;;;10.52;5.22;;;;;;;18.67;94.54;100499.41;5037911;28;20045;-75
2021/08/12 07:39:43;;;;;;;6.43;5.13;;;;;;;18.76;95.19;100500.44;5043777;28;20135;-73
2021/08/12 07:42:10;;;;;;;8.13;5.93;;;;;;;18.77;94.97;100492.19;5065875;28;20102;-75
2021/08/12 07:44:36;;;;;;;8.63;5.25;;;;;;;18.84;95.16;100500.59;5039669;28;20079;-73
2021/08/12 07:47:03;;;;;;;6.07;4.78;;;;;;;18.83;95.95;100483.53;5038480;28;20053;-71
2021/08/12 07:49:30;;;;;;;10.45;5.60;;;;;;;18.94;96.30;100506.88;5062586;28;20049;-72
2021/08/12 07:51:57;;;;;;;9.95;4.75;;;;;;;19.04;95.35;100504.22;5069482;28;20079;-73
2021/08/12 07:54:23;;;;;;;5.50;4.53;;;;;;;19.08;94.76;100499.38;5056993;28;20110;-74
2021/08/12 07:56:50;;;;;;;5.68;4.60;;;;;;;19.30;91.26;100511.78;5055844;28;20048;-73
2021/08/12 07:59:17;;;;;;;6.68;4.38;;;;;;;19.41;89.66;100514.31;5055318;28;20048;-74
2021/08/12 08:01:43;;;;;;;6.85;4.95;;;;;;;19.54;87.98;100513.19;5059053;28;20102;-72
2021/08/12 08:04:10;;;;;;;8.88;4.57;;;;;;;19.66;88.38;100513.88;5056683;28;20057;-76
2021/08/12 08:06:37;;;;;;;5.70;4.25;;;;;;;19.81;87.04;100522.41;5054605;28;20044;-71
2021/08/12 08:09:04;;;;;;;10.43;4.55;;;;;;;19.76;86.09;100512.03;5055465;28;20056;-68
2021/08/12 08:11:31;;;;;;;7.10;4.10;;;;;;;19.92;84.87;100524.97;5058232;28;20049;-73
2021/08/12 08:14:01;;;;;;;10.02;4.47;;;;;;;19.84;87.40;100514.00;5055608;28;20057;-72
2021/08/12 08:16:28;;;;;;;5.97;4.15;;;;;;;20.01;84.36;100528.69;5035802;28;20385;-71
2021/08/12 08:18:55;;;;;;;7.57;3.85;;;;;;;20.13;81.01;100525.78;5055263;28;20049;-69
2021/08/12 08:21:22;;;;;;;7.65;4.10;;;;;;;20.27;79.88;100522.59;5055250;28;20076;-74
2021/08/12 08:23:48;;;;;;;8.75;4.53;;;;;;;20.33;81.35;100522.00;5038057;28;20056;-74
2021/08/12 08:26:15;;;;;;;8.63;4.13;;;;;;;20.59;78.74;100525.91;5055148;28;20383;-73
2021/08/12 08:28:42;;;;;;;8.40;4.28;;;;;;;20.71;76.65;100524.69;5047917;28;20461;-71
2021/08/12 08:31:09;;;;;;;4.90;3.95;;;;;;;20.85;76.45;100533.34;5053726;28;20103;-70
2021/08/12 08:33:36;;;;;;;5.88;4.20;;;;;;;20.94;75.13;100527.03;5054089;28;20049;-71
2021/08/12 08:36:03;;;;;;;4.75;3.80;;;;;;;21.03;75.32;100531.50;5054022;28;20400;-70
2021/08/12 08:38:30;;;;;;;12.00;4.93;;;;;;;21.03;74.92;100523.38;5054533;28;20052;-70
2021/08/12 08:40:58;;;;;;;8.80;4.18;;;;;;;21.02;75.40;100518.97;5054447;28;20047;-70
2021/08/12 08:43:24;;;;;;;8.43;4.07;;;;;;;21.09;75.00;100521.06;5053799;28;20198;-70
2021/08/12 08:45:53;;;;;;;7.28;4.35;;;;;;;21.08;75.55;100524.78;5054284;28;20130;-69
2021/08/12 08:48:23;;;;;;;6.22;3.60;;;;;;;20.95;73.89;100512.44;5055639;28;20440;-70
2021/08/12 08:50:51;;;;;;;5.32;3.47;;;;;;;21.05;72.81;100535.94;5054654;28;20094;-70
2021/08/12 08:53:19;;;;;;;8.68;4.30;;;;;;;21.05;72.77;100525.06;5064600;28;20045;-70
2021/08/12 08:55:46;;;;;;;6.28;3.88;;;;;;;21.08;73.54;100527.50;5064201;28;20048;-68
2021/08/12 08:58:13;;;;;;;9.27;4.53;;;;;;;21.20;68.42;100530.84;5054410;28;20476;-67
2021/08/12 09:00:40;;;;;;;6.90;3.90;;;;;;;21.26;68.34;100528.38;5054627;28;20049;-70
2021/08/12 09:03:07;;;;;;;4.85;3.92;;;;;;;21.25;71.44;100529.34;5055101;28;20045;-68
2021/08/12 09:05:35;;;;;;;5.20;3.92;;;;;;;21.28;70.28;100531.78;5037155;28;20048;-69
2021/08/12 09:08:03;;;;;;;5.28;4.00;;;;;;;21.28;65.12;100530.91;5057388;28;20185;-74
2021/08/12 09:10:30;;;;;;;5.97;3.78;;;;;;;21.44;60.74;100541.06;5037235;28;20049;-69
2021/08/12 09:12:56;;;;;;;7.13;3.88;;;;;;;21.50;64.63;100536.88;5058431;28;20059;-70
2021/08/12 09:15:24;;;;;;;6.45;3.95;;;;;;;21.52;64.71;100543.00;5054163;28;20060;-69
2021/08/12 09:17:57;;;;;;;5.50;3.92;;;;;;;21.52;61.51;100532.16;5053904;28;20049;-68
2021/08/12 09:20:26;;;;;;;7.07;3.90;;;;;;;21.76;62.68;100539.69;5060760;28;20102;-72
2021/08/12 09:23:01;;;;;;;7.17;3.97;;;;;;;21.79;64.25;100535.78;5036809;28;20052;-74
2021/08/12 09:25:41;;;;;;;7.57;4.05;;;;;;;21.81;65.60;100526.47;5050716;28;20099;-72
2021/08/12 09:28:29;;;;;;;6.57;3.50;;;;;;;22.02;63.92;100538.84;5050714;28;20404;-72
2021/08/12 09:31:02;;;;;;;4.60;3.78;;;;;;;22.05;62.78;100543.94;5060109;28;20063;-72
2021/08/12 09:33:32;;;;;;;5.35;3.42;;;;;;;22.16;63.60;100540.09;5054280;28;20063;-74
2021/08/12 09:36:00;;;;;;;5.30;3.70;;;;;;;22.28;65.97;100540.69;5053763;28;20052;-73
2021/08/12 09:38:27;;;;;;;14.02;4.50;;;;;;;22.28;63.14;100531.69;5054150;28;20087;-74
2021/08/12 09:40:57;;;;;;;5.30;3.70;;;;;;;22.39;64.12;100536.84;5038861;28;20056;-74
2021/08/12 09:43:30;;;;;;;8.00;4.20;;;;;;;22.38;65.77;100530.56;5054228;28;20453;-71
2021/08/12 09:45:57;;;;;;;7.15;3.92;;;;;;;22.41;65.25;100536.66;5053943;28;20429;-71
2021/08/12 09:48:24;;;;;;;7.38;3.88;;;;;;;22.40;63.54;100535.84;5053355;28;20049;-68
2021/08/12 09:51:06;;;;;;;6.65;3.83;;;;;;;22.36;61.92;100538.03;5059144;28;20072;-72
2021/08/12 09:53:34;;;;;;;5.97;3.92;;;;;;;22.31;64.95;100534.94;5050416;28;20052;-72
2021/08/12 09:56:11;;;;;;;8.38;4.38;;;;;;;22.21;67.99;100528.75;5053774;28;20049;-70
2021/08/12 09:58:38;;;;;;;7.10;3.50;;;;;;;22.23;69.53;100529.47;5055434;28;20430;-68
2021/08/12 10:01:17;;;;;;;6.53;4.13;;;;;;;22.25;67.07;100531.00;5059666;28;20053;-69
2021/08/12 10:03:45;;;;;;;8.15;4.43;;;;;;;22.21;70.68;100537.75;5055766;28;20053;-68
2021/08/12 10:06:22;;;;;;;5.82;3.80;;;;;;;22.08;67.70;100521.91;5054313;28;20056;-73
2021/08/12 10:08:49;;;;;;;5.50;4.10;;;;;;;22.18;66.53;100527.19;5053475;28;20049;-67
2021/08/12 10:11:16;;;;;;;9.30;3.70;;;;;;;22.24;68.88;100525.72;5056501;28;20048;-72
2021/08/12 10:13:43;;;;;;;5.40;3.78;;;;;;;22.26;69.09;100520.97;5053653;28;20174;-71
2021/08/12 10:16:10;;;;;;;5.32;4.07;;;;;;;22.29;67.81;100520.66;5057787;28;20049;-70
2021/08/12 10:18:40;;;;;;;5.07;3.63;;;;;;;22.30;64.71;100522.34;5053236;28;20060;-69
2021/08/12 10:21:07;;;;;;;5.97;3.30;;;;;;;22.34;63.50;100514.72;5053243;28;20139;-69
2021/08/12 10:23:36;;;;;;;5.15;3.90;;;;;;;22.38;66.22;100527.81;5053580;28;20053;-71
2021/08/12 10:26:04;;;;;;;6.13;3.83;;;;;;;22.51;66.33;100526.56;5055656;28;20384;-70
2021/08/12 10:28:34;;;;;;;4.60;3.88;;;;;;;22.53;65.87;100521.81;5035772;28;20087;-70
2021/08/12 10:31:02;;;;;;;6.38;3.90;;;;;;;22.69;62.75;100528.31;5053935;28;21410;-72
2021/08/12 10:33:29;;;;;;;6.88;3.88;;;;;;;22.89;59.75;100529.75;5061023;28;20052;-72
2021/08/12 10:36:00;;;;;;;6.78;4.00;;;;;;;22.95;62.08;100489.28;5059210;28;20518;-75
2021/08/12 10:38:27;;;;;;;7.18;4.03;;;;;;;23.26;62.00;100505.81;5060291;28;20598;-71
2021/08/12 10:40:55;;;;;;;7.93;3.97;;;;;;;23.33;61.58;100485.09;5058436;28;20053;-70
2021/08/12 10:43:28;;;;;;;6.80;4.40;;;;;;;23.60;58.29;100513.00;5059538;28;20099;-71
2021/08/12 10:46:01;;;;;;;5.75;3.72;;;;;;;23.54;58.55;100504.69;5057554;28;20059;-73
2021/08/12 10:48:29;;;;;;;5.53;3.90;;;;;;;23.78;56.32;100501.09;5051475;28;20052;-69
2021/08/12 10:51:13;;;;;;;11.73;4.05;;;;;;;23.95;52.84;100506.50;5053206;28;20060;-70
2021/08/12 10:53:44;;;;;;;5.80;4.28;;;;;;;24.07;54.54;100501.56;5055881;28;20049;-69
2021/08/12 10:56:18;;;;;;;5.85;3.85;;;;;;;24.16;54.80;100505.97;5056629;28;20053;-70
2021/08/12 10:58:50;;;;;;;4.72;3.95;;;;;;;24.24;54.27;100505.09;5057410;28;20440;-68
2021/08/12 11:01:31;;;;;;;7.60;4.25;;;;;;;24.15;54.03;100501.53;5057538;28;20061;-70
2021/08/12 11:04:01;;;;;;;8.50;4.07;;;;;;;24.22;56.71;100508.00;5057059;28;20453;-68
2021/08/12 11:06:39;;;;;;;5.20;4.18;;;;;;;24.25;55.95;100506.81;5051993;28;20053;-68
2021/08/12 11:09:08;;;;;;;5.07;3.90;;;;;;;24.24;54.89;100489.56;5057221;28;20422;-68
2021/08/12 11:11:34;;;;;;;5.53;4.20;;;;;;;24.36;53.52;100498.22;5057346;28;20049;-68
2021/08/12 11:14:08;;;;;;;5.50;4.10;;;;;;;24.38;54.30;100500.78;5057378;28;20057;-69
2021/08/12 11:16:40;;;;;;;8.25;4.18;;;;;;;24.48;54.12;100501.44;5038336;28;20056;-69
2021/08/12 11:19:26;;;;;;;7.25;4.07;;;;;;;24.47;51.85;100497.00;5037671;28;20128;-69
2021/08/12 11:21:53;;;;;;;6.22;4.25;;;;;;;24.40;56.47;100498.75;5039633;28;20045;-70
2021/08/12 11:24:23;;;;;;;6.25;4.68;;;;;;;24.39;52.93;100492.44;5057175;28;20056;-69